Terminal Aerodrome Forecast
Issued by NWS

Home | Current Version | Previous Version | Graphics & Text | Print | Product List | Glossary On
Versions: 1 2 3 4 5 6 7 8 9 10 11 12 13 14
000
FTUS43 KGRB 020520
TAFATW
TAF
KATW 020520Z 0206/0306 22006KT P6SM SCT060 SCT120
     FM021000 21009KT P6SM VCSH SCT060 BKN100
     FM021500 24014G22KT P6SM SCT035 SCT100
     FM022200 28011G18KT P6SM SCT040 BKN100
      TEMPO 0222/0224 3SM TSRA BR BKN035CB
     FM030000 33007KT P6SM SCT035=

USA.gov is the U.S. government's official web portal to all federal, state and local government web resources and services.